createdAt,value
2022-07-28T00:01:59.605Z,17.30
2022-07-28T00:04:29.624Z,17.12
2022-07-28T00:06:59.560Z,17.20
2022-07-28T00:09:30.774Z,17.27
2022-07-28T00:12:00.612Z,17.27
2022-07-28T00:14:31.044Z,17.12
2022-07-28T00:17:01.110Z,17.29
2022-07-28T00:19:30.886Z,17.19
2022-07-28T00:22:01.002Z,17.15
2022-07-28T00:24:31.786Z,17.21
2022-07-28T00:27:01.392Z,16.94
2022-07-28T00:29:49.114Z,16.87
2022-07-28T00:32:02.934Z,16.78
2022-07-28T00:34:32.902Z,16.78
2022-07-28T00:37:06.655Z,16.80
2022-07-28T00:39:36.041Z,16.78
2022-07-28T00:42:08.517Z,16.69
2022-07-28T00:44:40.266Z,16.60
2022-07-28T00:47:11.794Z,16.57
2022-07-28T00:49:42.004Z,16.65
2022-07-28T00:52:13.104Z,16.80
2022-07-28T00:54:42.860Z,16.81
2022-07-28T00:57:13.188Z,16.80
2022-07-28T00:59:43.312Z,16.71
2022-07-28T01:02:13.284Z,16.64
2022-07-28T01:04:43.184Z,16.74
2022-07-28T01:07:32.757Z,16.62
2022-07-28T01:10:11.161Z,16.63
2022-07-28T01:12:58.416Z,16.52
2022-07-28T01:15:39.827Z,16.48
2022-07-28T01:18:14.453Z,16.41
2022-07-28T01:20:47.976Z,16.45
2022-07-28T01:23:35.693Z,16.32
2022-07-28T01:26:33.721Z,16.33
2022-07-28T01:29:27.589Z,16.27
2022-07-28T01:32:09.284Z,16.32
2022-07-28T01:34:42.975Z,16.12
2022-07-28T01:37:15.785Z,16.12
2022-07-28T01:39:49.939Z,16.16
2022-07-28T01:42:22.464Z,16.20
2022-07-28T01:44:54.363Z,16.07
2022-07-28T01:47:26.930Z,16.08
2022-07-28T01:49:58.842Z,16.16
2022-07-28T01:52:29.904Z,15.94
2022-07-28T01:55:02.006Z,15.81
2022-07-28T01:57:33.804Z,15.96
2022-07-28T02:00:05.984Z,15.81
2022-07-28T02:02:39.405Z,15.75
2022-07-28T02:05:10.746Z,15.94
2022-07-28T02:07:43.184Z,15.63
2022-07-28T02:10:16.803Z,15.70
2022-07-28T02:12:49.933Z,15.78
2022-07-28T02:15:21.893Z,15.88
2022-07-28T02:17:53.865Z,15.72
2022-07-28T02:20:23.904Z,15.82
2022-07-28T02:22:54.781Z,15.56
2022-07-28T02:25:24.690Z,15.77
2022-07-28T02:27:57.856Z,15.64
2022-07-28T02:30:34.092Z,15.64
2022-07-28T02:33:12.668Z,15.74
2022-07-28T02:35:57.728Z,15.57
2022-07-28T02:38:34.818Z,15.70
2022-07-28T02:41:07.827Z,15.72
2022-07-28T02:43:50.350Z,15.59
2022-07-28T02:46:14.709Z,15.59
2022-07-28T02:48:47.492Z,15.40
2022-07-28T02:51:19.538Z,15.68
2022-07-28T02:53:49.640Z,15.61
2022-07-28T02:56:20.156Z,15.54
2022-07-28T02:58:51.054Z,15.41
2022-07-28T03:01:22.758Z,15.54
2022-07-28T03:03:55.589Z,15.78
2022-07-28T03:06:28.546Z,15.67
2022-07-28T03:08:58.231Z,15.82
2022-07-28T03:11:29.051Z,15.74
2022-07-28T03:13:58.834Z,15.74
2022-07-28T03:16:31.200Z,15.78
2022-07-28T03:19:01.060Z,15.72
2022-07-28T03:21:30.833Z,15.67
2022-07-28T03:24:01.295Z,15.62
2022-07-28T03:26:36.509Z,15.60
2022-07-28T03:29:06.517Z,15.55
2022-07-28T03:31:39.676Z,15.64
2022-07-28T03:34:11.939Z,15.63
2022-07-28T03:36:45.051Z,15.55
2022-07-28T03:39:16.678Z,15.55
2022-07-28T03:41:46.992Z,15.59
2022-07-28T03:44:27.828Z,15.61
2022-07-28T03:46:48.867Z,15.58
2022-07-28T03:49:18.797Z,15.46
2022-07-28T03:51:48.800Z,15.52
2022-07-28T03:54:18.571Z,15.46
2022-07-28T03:56:48.615Z,15.56
2022-07-28T03:59:19.569Z,15.43
2022-07-28T04:01:49.437Z,15.52
2022-07-28T04:04:18.975Z,15.41
2022-07-28T04:06:48.752Z,15.28
2022-07-28T04:09:18.888Z,14.95
2022-07-28T04:11:48.669Z,15.37
2022-07-28T04:14:18.851Z,15.30
2022-07-28T04:16:48.947Z,15.33
2022-07-28T04:19:18.737Z,15.38
2022-07-28T04:21:48.508Z,15.31
2022-07-28T04:24:18.485Z,15.28
2022-07-28T04:26:48.526Z,15.30
2022-07-28T04:29:23.469Z,15.42
2022-07-28T04:31:50.242Z,15.37
2022-07-28T04:34:20.046Z,15.61
2022-07-28T04:36:51.452Z,15.47
2022-07-28T04:39:21.264Z,15.43
2022-07-28T04:41:52.199Z,15.43
2022-07-28T04:44:21.969Z,15.34
2022-07-28T04:46:51.734Z,15.42
2022-07-28T04:49:21.839Z,15.48
2022-07-28T04:51:52.444Z,15.52
2022-07-28T04:54:26.722Z,15.52
2022-07-28T04:56:55.897Z,15.51
2022-07-28T04:59:25.705Z,15.69
2022-07-28T05:01:57.909Z,15.41
2022-07-28T05:04:27.905Z,15.50
2022-07-28T05:06:57.748Z,15.41
2022-07-28T05:09:27.596Z,15.39
2022-07-28T05:11:57.385Z,15.08
2022-07-28T05:14:27.239Z,15.50
2022-07-28T05:16:57.442Z,15.38
2022-07-28T05:19:27.296Z,15.10
2022-07-28T05:21:57.157Z,15.12
2022-07-28T05:24:26.659Z,15.33
2022-07-28T05:26:56.765Z,15.56
2022-07-28T05:29:35.156Z,15.48
2022-07-28T05:31:58.381Z,15.73
2022-07-28T05:34:27.913Z,15.89
2022-07-28T05:36:57.856Z,16.09
2022-07-28T05:39:27.459Z,16.09
2022-07-28T05:41:57.217Z,16.26
2022-07-28T05:44:26.935Z,16.14
2022-07-28T05:46:56.801Z,16.05
2022-07-28T05:49:26.931Z,16.42
2022-07-28T05:51:56.987Z,16.37
2022-07-28T05:54:26.551Z,16.51
2022-07-28T05:56:56.611Z,16.82
2022-07-28T05:59:26.710Z,17.06
2022-07-28T06:01:56.514Z,17.14
2022-07-28T06:04:27.890Z,16.94
2022-07-28T06:06:58.092Z,17.13
2022-07-28T06:09:27.872Z,17.57
2022-07-28T06:11:57.664Z,17.99
2022-07-28T06:14:27.423Z,18.17
2022-07-28T06:16:57.294Z,18.10
2022-07-28T06:19:27.121Z,18.28
2022-07-28T06:21:56.682Z,18.28
2022-07-28T06:24:27.043Z,18.38
2022-07-28T06:26:56.876Z,18.59
2022-07-28T06:29:26.373Z,18.66
2022-07-28T06:31:55.904Z,18.73
2022-07-28T06:34:25.673Z,18.45
2022-07-28T06:36:55.787Z,18.80
2022-07-28T06:39:25.681Z,18.76
2022-07-28T06:41:55.449Z,18.80
2022-07-28T06:44:42.528Z,18.80
2022-07-28T06:46:58.288Z,18.70
2022-07-28T06:49:27.865Z,18.77
2022-07-28T06:51:57.768Z,18.81
2022-07-28T06:54:27.619Z,18.67
2022-07-28T06:56:57.372Z,18.48
2022-07-28T06:59:27.322Z,18.62
2022-07-28T07:01:58.936Z,18.67
2022-07-28T07:04:29.764Z,18.69
2022-07-28T07:06:59.565Z,18.84
2022-07-28T07:09:29.330Z,18.88
2022-07-28T07:12:00.135Z,18.75
2022-07-28T07:14:30.753Z,19.08
2022-07-28T07:17:00.582Z,19.13
2022-07-28T07:19:30.349Z,19.17
2022-07-28T07:22:00.137Z,19.09
2022-07-28T07:24:29.915Z,19.22
2022-07-28T07:26:59.808Z,19.21
2022-07-28T07:29:30.353Z,19.15
2022-07-28T07:32:00.554Z,19.15
2022-07-28T07:34:30.603Z,19.38
2022-07-28T07:37:00.670Z,19.40
2022-07-28T07:39:30.724Z,19.49
2022-07-28T07:42:00.514Z,19.21
2022-07-28T07:44:29.961Z,19.53
2022-07-28T07:46:59.851Z,19.88
2022-07-28T07:49:45.154Z,20.11
2022-07-28T07:52:01.320Z,20.07
2022-07-28T07:54:31.106Z,20.17
2022-07-28T07:57:01.415Z,20.28
2022-07-28T07:59:31.176Z,20.17
2022-07-28T08:02:01.251Z,20.72
2022-07-28T08:04:31.187Z,21.01
2022-07-28T08:07:00.974Z,21.20
2022-07-28T08:09:30.748Z,21.42
2022-07-28T08:12:00.607Z,21.86
2022-07-28T08:14:30.263Z,21.61
2022-07-28T08:17:00.313Z,21.75
2022-07-28T08:19:30.109Z,21.82
2022-07-28T08:22:01.662Z,22.03
2022-07-28T08:24:32.998Z,21.79
2022-07-28T08:27:04.185Z,21.72
2022-07-28T08:29:34.209Z,22.01
2022-07-28T08:32:06.584Z,21.78
2022-07-28T08:34:37.031Z,21.74
2022-07-28T08:37:07.484Z,22.10
2022-07-28T08:39:37.678Z,22.53
2022-07-28T08:42:18.445Z,22.36
2022-07-28T08:44:57.184Z,22.42
2022-07-28T08:47:40.253Z,22.81
2022-07-28T08:50:00.275Z,22.81
2022-07-28T08:52:31.881Z,22.72
2022-07-28T08:55:04.917Z,22.70
2022-07-28T08:57:40.080Z,22.81
2022-07-28T09:00:12.696Z,22.81
2022-07-28T09:02:46.105Z,23.55
2022-07-28T09:05:16.211Z,23.55
2022-07-28T09:07:54.081Z,23.71
2022-07-28T09:10:21.809Z,23.66
2022-07-28T09:12:52.282Z,24.00
2022-07-28T09:15:21.769Z,23.78
2022-07-28T09:17:51.525Z,23.82
2022-07-28T09:20:21.691Z,23.81
2022-07-28T09:23:00.026Z,23.60
2022-07-28T09:25:31.118Z,23.63
2022-07-28T09:28:14.465Z,23.98
2022-07-28T09:30:53.511Z,24.23
2022-07-28T09:33:42.175Z,24.57
2022-07-28T09:35:58.256Z,24.36
2022-07-28T09:38:28.607Z,24.60
2022-07-28T09:41:04.117Z,24.98
2022-07-28T09:43:39.560Z,24.68
2022-07-28T09:46:23.752Z,24.82
2022-07-28T09:48:56.382Z,24.75
2022-07-28T09:51:33.258Z,24.75
2022-07-28T09:54:14.821Z,24.79
2022-07-28T09:56:46.158Z,24.86
2022-07-28T09:59:18.054Z,25.14
2022-07-28T10:02:03.048Z,25.34
2022-07-28T10:04:38.050Z,25.61
2022-07-28T10:07:14.127Z,25.60
2022-07-28T10:09:45.027Z,25.17
2022-07-28T10:12:22.767Z,25.63
2022-07-28T10:14:54.632Z,24.78
2022-07-28T10:17:26.128Z,25.11
2022-07-28T10:19:58.324Z,25.31
2022-07-28T10:22:32.407Z,25.10
2022-07-28T10:25:04.436Z,25.61
2022-07-28T10:27:34.485Z,25.73
2022-07-28T10:30:08.127Z,26.11
2022-07-28T10:32:46.367Z,26.11
2022-07-28T10:35:17.653Z,25.90
2022-07-28T10:38:02.621Z,26.42
2022-07-28T10:40:38.248Z,26.11
2022-07-28T10:43:09.647Z,26.05
2022-07-28T10:46:04.265Z,25.88
2022-07-28T10:48:13.934Z,26.07
2022-07-28T10:50:45.071Z,26.21
2022-07-28T10:53:34.183Z,26.39
2022-07-28T10:56:15.079Z,26.03
2022-07-28T10:59:04.917Z,25.93
2022-07-28T11:01:50.036Z,25.84
2022-07-28T11:04:31.609Z,26.17
2022-07-28T11:07:12.012Z,26.24
2022-07-28T11:09:42.009Z,26.16
2022-07-28T11:12:13.244Z,26.22
2022-07-28T11:14:44.695Z,26.04
2022-07-28T11:17:24.320Z,26.03
2022-07-28T11:22:28.194Z,25.91
2022-07-28T11:25:20.012Z,25.75
2022-07-28T11:27:47.410Z,26.44
2022-07-28T11:30:31.223Z,26.28
2022-07-28T11:33:01.963Z,26.84
2022-07-28T11:35:42.778Z,26.84
2022-07-28T11:38:13.998Z,26.48
2022-07-28T11:40:48.933Z,26.32
2022-07-28T11:43:36.032Z,26.66
2022-07-28T11:46:11.836Z,26.77
2022-07-28T11:48:44.787Z,26.82
2022-07-28T11:51:15.828Z,26.65
2022-07-28T11:53:48.072Z,27.05
2022-07-28T11:56:26.450Z,27.24
2022-07-28T11:59:01.914Z,27.24
2022-07-28T12:01:32.529Z,27.30
2022-07-28T12:04:14.185Z,26.81
2022-07-28T12:06:51.168Z,27.06
2022-07-28T12:09:23.300Z,27.17
2022-07-28T12:11:51.224Z,27.17
2022-07-28T12:14:22.462Z,27.26
2022-07-28T12:16:53.460Z,27.28
2022-07-28T12:19:24.170Z,27.47
2022-07-28T12:21:58.247Z,27.50
2022-07-28T12:24:30.168Z,27.81
2022-07-28T12:27:00.960Z,28.49
2022-07-28T12:29:35.729Z,28.25
2022-07-28T12:32:12.774Z,28.25
2022-07-28T12:34:44.328Z,28.64
2022-07-28T12:37:14.881Z,29.16
2022-07-28T12:39:46.096Z,28.87
2022-07-28T12:42:15.561Z,28.64
2022-07-28T12:44:48.444Z,28.70
2022-07-28T12:47:21.240Z,28.94
2022-07-28T12:49:58.549Z,29.11
2022-07-28T12:52:26.341Z,28.96
2022-07-28T12:54:56.824Z,28.42
2022-07-28T12:57:51.397Z,27.90
2022-07-28T13:00:26.989Z,27.60
2022-07-28T13:02:59.132Z,28.12
2022-07-28T13:05:54.935Z,28.47
2022-07-28T13:08:27.679Z,27.95
2022-07-28T13:11:01.105Z,28.15
2022-07-28T13:13:30.866Z,28.13
2022-07-28T13:16:15.479Z,28.33
2022-07-28T13:18:54.073Z,28.33
2022-07-28T13:21:56.506Z,28.33
2022-07-28T13:24:19.720Z,28.67
2022-07-28T13:26:49.989Z,28.54
2022-07-28T13:29:19.784Z,28.74
2022-07-28T13:31:49.604Z,28.61
2022-07-28T13:34:19.275Z,28.37
2022-07-28T13:36:49.115Z,28.41
2022-07-28T13:39:18.874Z,28.59
2022-07-28T13:41:58.266Z,29.05
2022-07-28T13:44:20.203Z,28.69
2022-07-28T13:46:50.531Z,28.78
2022-07-28T13:49:21.225Z,28.76
2022-07-28T13:51:51.835Z,28.94
2022-07-28T13:54:22.083Z,29.10
2022-07-28T13:56:51.895Z,28.79
2022-07-28T13:59:22.217Z,29.23
2022-07-28T14:01:55.245Z,29.18
2022-07-28T14:04:25.207Z,29.56
2022-07-28T14:06:56.230Z,29.54
2022-07-28T14:09:25.994Z,29.82
2022-07-28T14:11:55.800Z,29.64
2022-07-28T14:14:26.029Z,29.65
2022-07-28T14:16:55.893Z,29.40
2022-07-28T14:19:38.460Z,29.40
2022-07-28T14:21:58.563Z,29.75
2022-07-28T14:24:28.113Z,29.62
2022-07-28T14:26:57.869Z,29.49
2022-07-28T14:29:28.052Z,29.04
2022-07-28T14:31:59.380Z,29.65
2022-07-28T14:34:29.307Z,29.60
2022-07-28T14:36:59.071Z,29.61
2022-07-28T14:39:30.545Z,30.15
2022-07-28T14:42:00.036Z,30.58
2022-07-28T14:44:29.875Z,29.89
2022-07-28T14:46:59.753Z,28.87
2022-07-28T14:49:29.499Z,29.11
2022-07-28T14:51:59.467Z,28.81
2022-07-28T14:54:30.011Z,28.37
2022-07-28T14:56:59.776Z,28.22
2022-07-28T14:59:29.283Z,28.23
2022-07-28T15:01:59.306Z,28.89
2022-07-28T15:04:29.133Z,28.67
2022-07-28T15:06:58.904Z,28.63
2022-07-28T15:09:28.662Z,29.06
2022-07-28T15:11:58.444Z,28.84
2022-07-28T15:14:28.149Z,28.91
2022-07-28T15:16:58.786Z,28.68
2022-07-28T15:19:28.274Z,29.09
2022-07-28T15:21:59.007Z,29.19
2022-07-28T15:24:30.504Z,29.22
2022-07-28T15:27:01.196Z,28.94
2022-07-28T15:29:35.285Z,28.99
2022-07-28T15:32:06.840Z,29.32
2022-07-28T15:34:38.572Z,29.39
2022-07-28T15:37:08.700Z,28.71
2022-07-28T15:39:43.233Z,28.31
2022-07-28T15:42:11.235Z,28.91
2022-07-28T15:44:41.006Z,28.82
2022-07-28T15:47:10.778Z,28.84
2022-07-28T15:49:41.570Z,28.84
2022-07-28T15:52:12.225Z,28.67
2022-07-28T15:54:42.142Z,28.86
2022-07-28T15:57:11.962Z,28.41
2022-07-28T15:59:49.902Z,28.35
2022-07-28T16:02:13.335Z,28.22
2022-07-28T16:04:48.453Z,28.40
2022-07-28T16:07:19.195Z,27.72
2022-07-28T16:09:52.079Z,27.70
2022-07-28T16:12:22.903Z,27.79
2022-07-28T16:14:54.049Z,27.62
2022-07-28T16:17:25.073Z,27.47
2022-07-28T16:19:54.566Z,27.52
2022-07-28T16:22:24.037Z,27.59
2022-07-28T16:24:53.799Z,27.36
2022-07-28T16:27:23.282Z,27.19
2022-07-28T16:29:53.087Z,27.43
2022-07-28T16:32:22.558Z,27.10
2022-07-28T16:34:53.774Z,27.11
2022-07-28T16:37:23.275Z,26.64
2022-07-28T16:39:53.103Z,26.99
2022-07-28T16:42:22.801Z,27.02
2022-07-28T16:44:52.692Z,26.73
2022-07-28T16:47:22.752Z,27.07
2022-07-28T16:49:52.320Z,27.20
2022-07-28T16:52:22.163Z,27.23
2022-07-28T16:54:52.192Z,27.37
2022-07-28T16:57:22.036Z,27.52
2022-07-28T16:59:51.878Z,27.09
2022-07-28T17:02:21.374Z,27.46
2022-07-28T17:04:51.192Z,27.48
2022-07-28T17:07:22.045Z,26.79
2022-07-28T17:09:51.881Z,26.42
2022-07-28T17:12:21.363Z,26.42
2022-07-28T17:14:51.127Z,26.80
2022-07-28T17:17:20.891Z,26.96
2022-07-28T17:19:50.714Z,27.14
2022-07-28T17:22:22.046Z,27.08
2022-07-28T17:24:52.006Z,27.03
2022-07-28T17:27:39.670Z,27.03
2022-07-28T17:29:54.063Z,27.14
2022-07-28T17:32:23.835Z,27.06
2022-07-28T17:34:54.157Z,26.30
2022-07-28T17:37:23.935Z,26.30
2022-07-28T17:39:53.981Z,26.41
2022-07-28T17:42:23.750Z,26.73
2022-07-28T17:44:55.388Z,26.22
2022-07-28T17:47:36.143Z,26.22
2022-07-28T17:49:57.190Z,26.35
2022-07-28T17:52:26.755Z,26.72
2022-07-28T17:55:14.074Z,26.48
2022-07-28T17:57:45.317Z,26.25
2022-07-28T18:00:17.073Z,26.31
2022-07-28T18:02:50.942Z,26.25
2022-07-28T18:05:21.352Z,25.96
2022-07-28T18:07:54.849Z,25.42
2022-07-28T18:10:24.685Z,25.42
2022-07-28T18:12:54.291Z,25.19
2022-07-28T18:15:24.152Z,25.28
2022-07-28T18:17:55.892Z,25.22
2022-07-28T18:20:26.032Z,25.22
2022-07-28T18:22:57.789Z,25.18
2022-07-28T18:25:30.212Z,25.30
2022-07-28T18:28:00.255Z,25.26
2022-07-28T18:30:30.304Z,25.06
2022-07-28T18:33:01.506Z,25.24
2022-07-28T18:35:32.310Z,25.09
2022-07-28T18:38:02.106Z,24.75
2022-07-28T18:40:32.419Z,24.75
2022-07-28T18:43:02.175Z,24.82
2022-07-28T18:45:31.951Z,24.25
2022-07-28T18:48:03.388Z,24.25
2022-07-28T18:50:33.152Z,24.44
2022-07-28T18:53:03.202Z,24.47
2022-07-28T18:55:32.972Z,24.30
2022-07-28T18:58:02.731Z,24.37
2022-07-28T19:00:33.384Z,24.27
2022-07-28T19:03:03.547Z,24.46
2022-07-28T19:05:36.980Z,24.34
2022-07-28T19:08:04.777Z,24.11
2022-07-28T19:10:34.617Z,24.11
2022-07-28T19:13:04.745Z,24.07
2022-07-28T19:15:36.546Z,24.11
2022-07-28T19:18:11.006Z,23.74
2022-07-28T19:20:40.988Z,23.83
2022-07-28T19:23:10.729Z,23.88
2022-07-28T19:25:41.009Z,23.90
2022-07-28T19:28:11.939Z,23.62
2022-07-28T19:30:42.343Z,23.81
2022-07-28T19:33:17.224Z,23.80
2022-07-28T19:35:43.656Z,23.38
2022-07-28T19:38:13.404Z,23.16
2022-07-28T19:40:43.602Z,23.22
2022-07-28T19:43:13.430Z,23.01
2022-07-28T19:45:43.280Z,23.14
2022-07-28T19:48:13.476Z,23.11
2022-07-28T19:50:49.991Z,23.11
2022-07-28T19:53:15.824Z,23.28
2022-07-28T19:55:50.585Z,23.14
2022-07-28T19:58:17.509Z,23.09
2022-07-28T20:00:48.375Z,23.10
2022-07-28T20:04:01.825Z,22.82
2022-07-28T20:05:50.250Z,22.82
2022-07-28T20:08:19.782Z,22.74
2022-07-28T20:10:50.404Z,22.77
2022-07-28T20:13:20.253Z,22.70
2022-07-28T20:15:50.089Z,22.63
2022-07-28T20:18:19.919Z,22.83
2022-07-28T20:20:49.756Z,22.64
2022-07-28T20:23:19.512Z,22.51
2022-07-28T20:25:49.655Z,22.48
2022-07-28T20:28:19.115Z,22.52
2022-07-28T20:30:49.286Z,22.60
2022-07-28T20:33:19.263Z,22.60
2022-07-28T20:35:49.014Z,22.17
2022-07-28T20:38:22.128Z,22.17
2022-07-28T20:40:52.326Z,22.21
2022-07-28T20:43:22.161Z,22.29
2022-07-28T20:45:51.979Z,22.38
2022-07-28T20:48:21.797Z,22.20
2022-07-28T20:50:51.556Z,22.10
2022-07-28T20:53:21.096Z,22.05
2022-07-28T20:55:50.849Z,21.89
2022-07-28T20:58:20.624Z,21.89
2022-07-28T21:00:50.616Z,21.80
2022-07-28T21:03:22.211Z,21.80
2022-07-28T21:05:51.969Z,21.99
2022-07-28T21:08:21.912Z,21.75
2022-07-28T21:10:51.847Z,21.63
2022-07-28T21:13:21.609Z,21.82
2022-07-28T21:15:51.339Z,21.64
2022-07-28T21:18:21.102Z,21.60
2022-07-28T21:20:50.867Z,21.55
2022-07-28T21:23:20.708Z,21.53
2022-07-28T21:25:51.276Z,21.47
2022-07-28T21:28:38.595Z,21.32
2022-07-28T21:31:09.531Z,21.15
2022-07-28T21:33:39.632Z,21.15
2022-07-28T21:36:10.367Z,21.10
2022-07-28T21:38:40.208Z,21.07
2022-07-28T21:41:10.032Z,20.86
2022-07-28T21:43:39.944Z,20.86
2022-07-28T21:46:11.749Z,20.56
2022-07-28T21:48:41.573Z,20.89
2022-07-28T21:51:14.785Z,20.84
2022-07-28T21:53:46.131Z,20.89
2022-07-28T21:56:16.472Z,20.52
2022-07-28T21:58:47.458Z,20.50
2022-07-28T22:01:17.294Z,20.41
2022-07-28T22:03:46.993Z,20.41
2022-07-28T22:06:17.034Z,20.30
2022-07-28T22:08:48.791Z,20.32
2022-07-28T22:11:18.543Z,20.23
2022-07-28T22:13:48.426Z,20.33
2022-07-28T22:16:18.281Z,20.37
2022-07-28T22:18:48.104Z,20.62
2022-07-28T22:21:17.851Z,20.40
2022-07-28T22:23:47.650Z,20.46
2022-07-28T22:26:17.640Z,20.58
2022-07-28T22:28:47.169Z,20.60
2022-07-28T22:31:17.066Z,20.46
2022-07-28T22:33:46.922Z,20.40
2022-07-28T22:36:16.881Z,20.31
2022-07-28T22:38:46.648Z,20.34
2022-07-28T22:41:16.398Z,20.30
2022-07-28T22:43:46.139Z,20.32
2022-07-28T22:46:15.829Z,20.25
2022-07-28T22:48:45.677Z,20.05
2022-07-28T22:51:16.686Z,19.99
2022-07-28T22:53:46.177Z,19.80
2022-07-28T22:59:04.232Z,20.05
2022-07-28T23:01:34.837Z,20.00
2022-07-28T23:04:06.024Z,19.92
2022-07-28T23:06:37.605Z,20.21
2022-07-28T23:09:07.720Z,20.24
2022-07-28T23:11:37.559Z,20.13
2022-07-28T23:14:07.400Z,20.11
2022-07-28T23:16:37.311Z,20.11
2022-07-28T23:19:07.142Z,20.05
2022-07-28T23:21:40.487Z,20.13
2022-07-28T23:24:12.088Z,20.04
2022-07-28T23:26:42.254Z,19.84
2022-07-28T23:29:12.101Z,19.84
2022-07-28T23:31:41.972Z,19.91
2022-07-28T23:34:12.029Z,19.99
2022-07-28T23:36:42.264Z,19.96
2022-07-28T23:39:12.854Z,19.96
2022-07-28T23:41:42.690Z,19.92
2022-07-28T23:44:14.733Z,19.89
2022-07-28T23:46:44.717Z,19.99
2022-07-28T23:49:15.788Z,19.99
2022-07-28T23:51:47.710Z,20.17
2022-07-28T23:54:17.868Z,20.12
2022-07-28T23:56:49.403Z,20.14
2022-07-28T23:59:19.264Z,20.14
